createdAt,value
2019-06-10T00:01:11.902Z,20.16
2019-06-10T00:04:15.715Z,19.98
2019-06-10T00:07:21.105Z,19.82
2019-06-10T00:10:24.859Z,19.86
2019-06-10T00:13:28.542Z,19.91
2019-06-10T00:16:32.197Z,19.82
2019-06-10T00:19:35.844Z,19.79
2019-06-10T00:22:40.923Z,19.77
2019-06-10T00:25:44.624Z,19.75
2019-06-10T00:28:48.406Z,19.79
2019-06-10T00:31:52.079Z,19.80
2019-06-10T00:34:55.777Z,19.81
2019-06-10T00:38:01.913Z,19.89
2019-06-10T00:41:07.233Z,19.89
2019-06-10T00:44:12.309Z,19.93
2019-06-10T00:47:15.754Z,19.90
2019-06-10T00:50:21.604Z,19.84
2019-06-10T00:53:24.831Z,19.87
2019-06-10T00:56:30.700Z,19.90
2019-06-10T00:59:33.971Z,19.92
2019-06-10T01:02:37.691Z,19.89
2019-06-10T01:05:42.284Z,19.89
2019-06-10T01:08:46.236Z,19.89
2019-06-10T01:11:51.836Z,19.89
2019-06-10T01:14:55.315Z,19.87
2019-06-10T01:18:01.271Z,19.79
2019-06-10T01:21:04.357Z,19.94
2019-06-10T01:24:09.557Z,19.82
2019-06-10T01:27:15.001Z,19.75
2019-06-10T01:30:24.536Z,19.79
2019-06-10T01:33:24.245Z,19.65
2019-06-10T01:36:27.857Z,19.61
2019-06-10T01:39:31.579Z,19.54
2019-06-10T01:42:35.216Z,19.58
2019-06-10T01:45:38.945Z,19.52
2019-06-10T01:48:47.826Z,19.44
2019-06-10T01:51:48.028Z,19.48
2019-06-10T01:54:51.775Z,19.43
2019-06-10T01:57:55.394Z,19.44
2019-06-10T02:01:19.011Z,19.46
2019-06-10T02:04:22.687Z,19.35
2019-06-10T02:07:26.322Z,19.22
2019-06-10T02:10:31.049Z,19.13
2019-06-10T02:13:34.907Z,19.06
2019-06-10T02:16:41.294Z,18.96
2019-06-10T02:19:47.240Z,18.90
2019-06-10T02:22:51.579Z,18.81
2019-06-10T02:25:55.476Z,18.66
2019-06-10T02:29:00.683Z,18.37
2019-06-10T02:32:05.274Z,18.39
2019-06-10T02:35:15.564Z,18.21
2019-06-10T02:38:19.827Z,18.43
2019-06-10T02:41:29.048Z,18.46
2019-06-10T02:44:32.643Z,18.48
2019-06-10T02:47:37.053Z,18.48
2019-06-10T02:50:54.878Z,18.62
2019-06-10T02:53:58.588Z,18.64
2019-06-10T02:57:04.471Z,18.74
2019-06-10T03:00:20.738Z,18.85
2019-06-10T03:03:22.801Z,18.85
2019-06-10T03:06:29.874Z,18.74
2019-06-10T03:09:31.860Z,18.90
2019-06-10T03:12:33.928Z,18.94
2019-06-10T03:15:39.290Z,18.98
2019-06-10T03:18:43.583Z,18.95
2019-06-10T03:21:47.269Z,19.05
2019-06-10T03:24:52.383Z,19.07
2019-06-10T03:27:56.167Z,19.10
2019-06-10T03:30:59.890Z,19.11
2019-06-10T03:34:05.162Z,19.14
2019-06-10T03:37:08.968Z,19.15
2019-06-10T03:40:13.226Z,19.14
2019-06-10T03:43:17.233Z,19.02
2019-06-10T03:46:23.813Z,19.07
2019-06-10T03:49:27.487Z,19.13
2019-06-10T03:52:32.437Z,19.19
2019-06-10T03:55:36.263Z,19.20
2019-06-10T03:58:40.022Z,19.22
2019-06-10T04:01:43.703Z,18.88
2019-06-10T04:04:52.306Z,19.09
2019-06-10T04:07:55.707Z,19.10
2019-06-10T04:10:59.454Z,19.08
2019-06-10T04:14:03.237Z,19.04
2019-06-10T04:17:07.031Z,19.00
2019-06-10T04:20:13.202Z,18.94
2019-06-10T04:23:17.621Z,18.96
2019-06-10T04:26:24.090Z,19.09
2019-06-10T04:29:27.681Z,18.86
2019-06-10T04:32:32.399Z,19.08
2019-06-10T04:35:36.055Z,19.16
2019-06-10T04:38:39.887Z,19.20
2019-06-10T04:41:43.527Z,19.23
2019-06-10T04:44:47.219Z,19.06
2019-06-10T04:47:52.420Z,19.07
2019-06-10T04:50:56.227Z,19.34
2019-06-10T04:53:59.896Z,19.09
2019-06-10T04:57:03.648Z,19.36
2019-06-10T05:00:13.020Z,19.35
2019-06-10T05:03:14.075Z,19.33
2019-06-10T05:06:18.946Z,19.54
2019-06-10T05:09:24.464Z,19.68
2019-06-10T05:12:28.211Z,19.75
2019-06-10T05:15:34.825Z,20.27
2019-06-10T05:18:37.538Z,20.64
2019-06-10T05:21:42.412Z,21.63
2019-06-10T05:24:46.296Z,22.10
2019-06-10T05:27:52.114Z,22.29
2019-06-10T05:30:55.375Z,22.45
2019-06-10T05:33:59.135Z,22.38
2019-06-10T05:37:02.856Z,22.13
2019-06-10T05:40:07.522Z,21.81
2019-06-10T05:43:13.072Z,21.45
2019-06-10T05:46:16.570Z,21.58
2019-06-10T05:49:20.226Z,21.03
2019-06-10T05:52:33.476Z,21.24
2019-06-10T05:55:38.751Z,21.14
2019-06-10T05:58:43.721Z,22.04
2019-06-10T06:01:47.602Z,22.56
2019-06-10T06:04:53.145Z,22.21
2019-06-10T06:08:05.686Z,22.69
2019-06-10T06:11:05.411Z,22.96
2019-06-10T06:14:09.142Z,23.06
2019-06-10T06:17:16.689Z,23.26
2019-06-10T06:20:20.655Z,23.37
2019-06-10T06:23:24.401Z,23.51
2019-06-10T06:26:28.912Z,23.35
2019-06-10T06:29:36.361Z,23.20
2019-06-10T06:32:43.567Z,23.19
2019-06-10T06:35:47.467Z,23.10
2019-06-10T06:38:53.209Z,22.73
2019-06-10T06:41:56.711Z,22.92
2019-06-10T06:45:02.818Z,22.01
2019-06-10T06:48:06.038Z,22.11
2019-06-10T06:51:12.716Z,22.31
2019-06-10T06:54:15.451Z,22.49
2019-06-10T06:57:19.126Z,22.88
2019-06-10T07:00:45.107Z,22.83
2019-06-10T07:03:34.500Z,22.92
2019-06-10T07:06:40.347Z,23.17
2019-06-10T07:09:46.963Z,22.71
2019-06-10T07:12:55.209Z,22.80
2019-06-10T07:16:02.964Z,23.01
2019-06-10T07:19:07.774Z,23.59
2019-06-10T07:22:15.260Z,23.12
2019-06-10T07:25:17.032Z,23.37
2019-06-10T07:28:22.907Z,23.42
2019-06-10T07:31:28.259Z,23.53
2019-06-10T07:34:36.674Z,23.71
2019-06-10T07:37:44.473Z,24.54
2019-06-10T07:40:48.432Z,24.41
2019-06-10T07:43:53.814Z,24.21
2019-06-10T07:46:57.533Z,24.63
2019-06-10T07:50:04.706Z,24.04
2019-06-10T07:53:09.940Z,24.51
2019-06-10T07:56:15.808Z,24.23
2019-06-10T07:59:19.485Z,23.94
2019-06-10T08:02:23.374Z,24.42
2019-06-10T08:05:27.142Z,24.91
2019-06-10T08:08:32.894Z,24.66
2019-06-10T08:11:37.177Z,24.83
2019-06-10T08:14:43.671Z,25.03
2019-06-10T08:17:46.173Z,25.37
2019-06-10T08:20:49.796Z,25.02
2019-06-10T08:23:54.999Z,24.47
2019-06-10T08:26:58.721Z,25.15
2019-06-10T08:30:15.310Z,25.17
2019-06-10T08:33:07.894Z,24.98
2019-06-10T08:36:13.620Z,24.77
2019-06-10T08:39:16.994Z,24.30
2019-06-10T08:42:23.068Z,25.88
2019-06-10T08:45:26.082Z,25.85
2019-06-10T08:48:29.785Z,26.22
2019-06-10T08:51:33.448Z,26.67
2019-06-10T08:54:38.566Z,27.09
2019-06-10T08:57:46.865Z,26.30
2019-06-10T09:00:49.465Z,26.20
2019-06-10T09:03:53.883Z,27.69
2019-06-10T09:06:57.971Z,29.21
2019-06-10T09:10:03.026Z,28.23
2019-06-10T09:13:06.966Z,28.37
2019-06-10T09:16:16.642Z,27.09
2019-06-10T09:19:16.180Z,26.66
2019-06-10T09:22:19.902Z,28.15
2019-06-10T09:25:23.693Z,28.13
2019-06-10T09:28:27.504Z,28.46
2019-06-10T09:31:33.950Z,27.57
2019-06-10T09:34:37.606Z,28.17
2019-06-10T09:37:45.838Z,28.68
2019-06-10T09:41:00.693Z,28.59
2019-06-10T09:43:57.504Z,27.11
2019-06-10T09:47:03.501Z,27.08
2019-06-10T09:50:12.198Z,27.20
2019-06-10T09:53:29.028Z,27.71
2019-06-10T09:56:23.030Z,27.89
2019-06-10T09:59:29.291Z,27.57
2019-06-10T10:02:33.222Z,27.51
2019-06-10T10:05:37.036Z,26.67
2019-06-10T10:08:44.632Z,27.22
2019-06-10T10:11:48.789Z,27.89
2019-06-10T10:14:55.910Z,28.59
2019-06-10T10:17:57.310Z,29.18
2019-06-10T10:21:03.748Z,29.90
2019-06-10T10:24:10.781Z,30.81
2019-06-10T10:27:13.453Z,31.58
2019-06-10T10:30:20.281Z,32.13
2019-06-10T10:33:29.031Z,32.27
2019-06-10T10:36:29.349Z,31.26
2019-06-10T10:39:33.015Z,30.60
2019-06-10T10:42:44.890Z,28.85
2019-06-10T10:45:43.477Z,29.48
2019-06-10T10:48:47.539Z,29.46
2019-06-10T10:51:51.221Z,29.91
2019-06-10T10:54:55.642Z,28.89
2019-06-10T10:57:59.359Z,29.19
2019-06-10T11:01:04.669Z,29.72
2019-06-10T11:04:13.014Z,29.09
2019-06-10T11:07:15.469Z,28.52
2019-06-10T11:10:19.209Z,28.37
2019-06-10T11:13:26.247Z,27.58
2019-06-10T11:16:32.447Z,28.06
2019-06-10T11:19:35.446Z,29.10
2019-06-10T11:22:39.129Z,29.35
2019-06-10T11:25:51.019Z,29.21
2019-06-10T11:28:49.465Z,28.56
2019-06-10T11:31:56.676Z,28.45
2019-06-10T11:34:59.804Z,28.10
2019-06-10T11:38:04.972Z,27.96
2019-06-10T11:41:08.636Z,28.56
2019-06-10T11:44:12.323Z,28.28
2019-06-10T11:47:15.997Z,30.03
2019-06-10T11:50:23.251Z,32.31
2019-06-10T11:53:28.772Z,33.85
2019-06-10T11:56:33.717Z,33.36
2019-06-10T11:59:39.502Z,33.36
2019-06-10T12:02:43.122Z,34.38
2019-06-10T12:05:46.861Z,31.73
2019-06-10T12:08:53.584Z,31.30
2019-06-10T12:12:01.291Z,31.30
2019-06-10T12:15:01.572Z,30.15
2019-06-10T12:18:08.580Z,30.23
2019-06-10T12:21:13.110Z,29.91
2019-06-10T12:24:16.418Z,29.67
2019-06-10T12:27:20.176Z,30.04
2019-06-10T12:30:25.078Z,28.84
2019-06-10T12:33:28.878Z,28.88
2019-06-10T12:36:32.872Z,28.47
2019-06-10T12:39:36.487Z,28.44
2019-06-10T12:42:41.567Z,28.24
2019-06-10T12:45:45.314Z,28.79
2019-06-10T12:48:49.058Z,29.99
2019-06-10T12:51:54.217Z,31.13
2019-06-10T12:54:58.064Z,31.03
2019-06-10T12:58:05.914Z,30.95
2019-06-10T13:01:11.776Z,32.00
2019-06-10T13:04:17.110Z,32.17
2019-06-10T13:07:23.966Z,32.19
2019-06-10T13:10:36.752Z,31.36
2019-06-10T13:13:42.436Z,31.93
2019-06-10T13:16:45.760Z,32.70
2019-06-10T13:19:49.406Z,33.87
2019-06-10T13:22:54.168Z,33.37
2019-06-10T13:26:01.498Z,32.22
2019-06-10T13:29:07.972Z,34.10
2019-06-10T13:32:09.406Z,34.10
2019-06-10T13:35:13.109Z,34.90
2019-06-10T13:38:16.827Z,32.90
2019-06-10T13:41:22.582Z,32.65
2019-06-10T13:44:25.842Z,33.96
2019-06-10T13:47:29.629Z,33.50
2019-06-10T13:50:33.305Z,33.97
2019-06-10T13:53:36.992Z,33.98
2019-06-10T13:56:47.018Z,30.59
2019-06-10T13:59:46.683Z,30.59
2019-06-10T14:02:52.253Z,32.57
2019-06-10T14:05:58.509Z,32.57
2019-06-10T14:09:04.716Z,33.39
2019-06-10T14:12:08.050Z,31.72
2019-06-10T14:15:17.003Z,31.72
2019-06-10T14:18:18.114Z,30.69
2019-06-10T14:21:23.422Z,30.58
2019-06-10T14:24:27.483Z,29.88
2019-06-10T14:27:31.188Z,29.87
2019-06-10T14:30:38.026Z,29.55
2019-06-10T14:33:42.969Z,28.92
2019-06-10T14:36:46.821Z,28.76
2019-06-10T14:39:52.876Z,29.00
2019-06-10T14:42:56.413Z,28.77
2019-06-10T14:46:00.264Z,28.65
2019-06-10T14:49:06.880Z,28.69
2019-06-10T14:52:13.440Z,28.61
2019-06-10T14:55:18.648Z,28.55
2019-06-10T14:58:23.243Z,28.66
2019-06-10T15:01:34.760Z,28.61
2019-06-10T15:04:38.411Z,28.81
2019-06-10T15:07:42.417Z,28.55
2019-06-10T15:10:48.673Z,28.62
2019-06-10T15:13:54.008Z,28.44
2019-06-10T15:16:59.443Z,28.35
2019-06-10T15:20:04.425Z,28.35
2019-06-10T15:23:08.695Z,28.31
2019-06-10T15:26:14.188Z,28.23
2019-06-10T15:29:18.963Z,28.42
2019-06-10T15:32:33.710Z,28.46
2019-06-10T15:35:28.654Z,28.46
2019-06-10T15:38:32.878Z,28.91
2019-06-10T15:41:36.772Z,28.89
2019-06-10T15:44:51.829Z,28.70
2019-06-10T15:47:46.070Z,28.74
2019-06-10T15:50:49.761Z,28.70
2019-06-10T15:53:53.422Z,28.51
2019-06-10T15:56:57.253Z,28.69
2019-06-10T16:00:04.260Z,28.72
2019-06-10T16:03:06.464Z,28.65
2019-06-10T16:06:10.221Z,28.72
2019-06-10T16:09:16.952Z,28.80
2019-06-10T16:12:26.496Z,28.37
2019-06-10T16:15:32.895Z,27.89
2019-06-10T16:18:35.591Z,28.15
2019-06-10T16:21:39.364Z,28.22
2019-06-10T16:24:43.178Z,28.21
2019-06-10T16:27:50.864Z,28.35
2019-06-10T16:30:54.106Z,27.93
2019-06-10T16:33:57.860Z,28.03
2019-06-10T16:37:02.435Z,27.94
2019-06-10T16:40:07.076Z,27.89
2019-06-10T16:43:12.580Z,28.00
2019-06-10T16:46:18.271Z,28.19
2019-06-10T16:49:25.583Z,28.30
2019-06-10T16:52:30.391Z,28.24
2019-06-10T16:55:34.380Z,28.24
2019-06-10T16:58:38.934Z,28.10
2019-06-10T17:01:44.146Z,28.13
2019-06-10T17:04:52.491Z,28.25
2019-06-10T17:07:53.201Z,28.26
2019-06-10T17:10:56.868Z,28.20
2019-06-10T17:14:02.957Z,28.17
2019-06-10T17:17:06.113Z,28.13
2019-06-10T17:20:09.919Z,28.03
2019-06-10T17:23:26.862Z,27.89
2019-06-10T17:26:35.587Z,27.84
2019-06-10T17:29:35.089Z,27.88
2019-06-10T17:32:38.891Z,27.75
2019-06-10T17:35:43.202Z,27.73
2019-06-10T17:38:52.212Z,27.59
2019-06-10T17:41:55.474Z,27.42
2019-06-10T17:44:59.215Z,27.38
2019-06-10T17:48:10.211Z,27.31
2019-06-10T17:51:13.527Z,27.32
2019-06-10T17:54:17.173Z,27.26
2019-06-10T17:57:23.150Z,27.23
2019-06-10T18:00:27.791Z,27.15
2019-06-10T18:03:33.274Z,27.08
2019-06-10T18:06:37.292Z,27.00
2019-06-10T18:09:41.204Z,27.10
2019-06-10T18:12:44.868Z,27.06
2019-06-10T18:15:48.629Z,27.01
2019-06-10T18:18:52.529Z,27.11
2019-06-10T18:21:57.291Z,27.05
2019-06-10T18:25:03.022Z,26.92
2019-06-10T18:28:06.591Z,26.88
2019-06-10T18:31:10.319Z,26.72
2019-06-10T18:34:14.016Z,26.72
2019-06-10T18:37:17.708Z,26.68
2019-06-10T18:40:21.482Z,26.65
2019-06-10T18:43:25.127Z,26.49
2019-06-10T18:46:29.938Z,26.44
2019-06-10T18:49:35.919Z,26.28
2019-06-10T18:52:39.909Z,26.23
2019-06-10T18:55:43.766Z,25.88
2019-06-10T18:58:49.301Z,25.26
2019-06-10T19:01:53.163Z,24.31
2019-06-10T19:04:57.007Z,23.60
2019-06-10T19:08:02.445Z,22.95
